sensor_id;sensor_type;location;lat;lon;timestamp;temperature;humidity
66506;HTU21D;53332;51.082;5.832;2024-03-23T00:55:12;8.62;118.99
66506;HTU21D;53332;51.082;5.832;2024-03-23T00:57:37;8.64;118.99
66506;HTU21D;53332;51.082;5.832;2024-03-23T01:00:04;8.68;118.99
66506;HTU21D;53332;51.082;5.832;2024-03-23T01:02:32;8.75;118.99
66506;HTU21D;53332;51.082;5.832;2024-03-23T01:04:58;8.78;118.99
66506;HTU21D;53332;51.082;5.832;2024-03-23T01:07:23;8.78;118.99
66506;HTU21D;53332;51.082;5.832;2024-03-23T01:09:49;8.76;118.99
66506;HTU21D;53332;51.082;5.832;2024-03-23T01:12:14;8.77;118.99
66506;HTU21D;53332;51.082;5.832;2024-03-23T01:14:40;8.78;118.99
66506;HTU21D;53332;51.082;5.832;2024-03-23T01:17:06;8.82;118.99
66506;HTU21D;53332;51.082;5.832;2024-03-23T01:19:31;8.86;118.99
66506;HTU21D;53332;51.082;5.832;2024-03-23T01:21:57;8.85;118.99
66506;HTU21D;53332;51.082;5.832;2024-03-23T01:24:22;8.82;118.99
66506;HTU21D;53332;51.082;5.832;2024-03-23T01:26:48;8.81;118.99
66506;HTU21D;53332;51.082;5.832;2024-03-23T01:29:13;8.79;118.99
66506;HTU21D;53332;51.082;5.832;2024-03-23T01:31:39;8.72;118.99
66506;HTU21D;53332;51.082;5.832;2024-03-23T01:34:04;8.70;118.99
66506;HTU21D;53332;51.082;5.832;2024-03-23T01:36:30;8.66;118.99
66506;HTU21D;53332;51.082;5.832;2024-03-23T01:38:55;8.65;118.99
66506;HTU21D;53332;51.082;5.832;2024-03-23T01:41:21;8.63;118.99
66506;HTU21D;53332;51.082;5.832;2024-03-23T01:43:46;8.60;118.99
66506;HTU21D;53332;51.082;5.832;2024-03-23T01:46:13;8.59;118.99
66506;HTU21D;53332;51.082;5.832;2024-03-23T01:48:38;8.58;118.99
66506;HTU21D;53332;51.082;5.832;2024-03-23T01:51:04;8.58;118.99
66506;HTU21D;53332;51.082;5.832;2024-03-23T01:53:30;8.53;118.99
66506;HTU21D;53332;51.082;5.832;2024-03-23T01:55:56;8.55;118.99
66506;HTU21D;53332;51.082;5.832;2024-03-23T01:58:22;8.52;118.99
66506;HTU21D;53332;51.082;5.832;2024-03-23T02:00:48;8.49;118.99
66506;HTU21D;53332;51.082;5.832;2024-03-23T02:03:26;8.46;118.99
66506;HTU21D;53332;51.082;5.832;2024-03-23T02:05:53;8.43;118.99
66506;HTU21D;53332;51.082;5.832;2024-03-23T02:08:23;8.45;118.99
66506;HTU21D;53332;51.082;5.832;2024-03-23T02:10:50;8.43;118.99
66506;HTU21D;53332;51.082;5.832;2024-03-23T02:13:17;8.43;118.99
66506;HTU21D;53332;51.082;5.832;2024-03-23T02:15:43;8.45;118.99
66506;HTU21D;53332;51.082;5.832;2024-03-23T02:18:08;8.45;118.99
66506;HTU21D;53332;51.082;5.832;2024-03-23T02:20:35;8.41;118.99
66506;HTU21D;53332;51.082;5.832;2024-03-23T02:23:01;8.41;118.99
66506;HTU21D;53332;51.082;5.832;2024-03-23T02:25:27;8.39;118.99
66506;HTU21D;53332;51.082;5.832;2024-03-23T02:27:52;8.34;118.99
66506;HTU21D;53332;51.082;5.832;2024-03-23T02:30:19;8.30;118.99
66506;HTU21D;53332;51.082;5.832;2024-03-23T02:32:45;8.28;118.99
66506;HTU21D;53332;51.082;5.832;2024-03-23T02:35:11;8.27;118.99
66506;HTU21D;53332;51.082;5.832;2024-03-23T02:37:37;8.24;118.99
66506;HTU21D;53332;51.082;5.832;2024-03-23T02:40:02;8.23;118.99
66506;HTU21D;53332;51.082;5.832;2024-03-23T02:42:28;8.26;118.99
66506;HTU21D;53332;51.082;5.832;2024-03-23T02:44:54;8.24;118.99
66506;HTU21D;53332;51.082;5.832;2024-03-23T02:47:19;8.23;118.99
66506;HTU21D;53332;51.082;5.832;2024-03-23T02:49:45;8.20;118.99
66506;HTU21D;53332;51.082;5.832;2024-03-23T02:52:10;8.15;118.99
66506;HTU21D;53332;51.082;5.832;2024-03-23T02:54:36;8.09;118.99
66506;HTU21D;53332;51.082;5.832;2024-03-23T02:57:02;8.06;118.99
66506;HTU21D;53332;51.082;5.832;2024-03-23T02:59:27;8.01;118.99
66506;HTU21D;53332;51.082;5.832;2024-03-23T03:01:53;7.91;118.99
66506;HTU21D;53332;51.082;5.832;2024-03-23T03:04:18;7.88;118.99
66506;HTU21D;53332;51.082;5.832;2024-03-23T03:06:47;7.84;118.99
66506;HTU21D;53332;51.082;5.832;2024-03-23T03:09:13;7.76;118.99
66506;HTU21D;53332;51.082;5.832;2024-03-23T03:11:39;7.76;118.99
66506;HTU21D;53332;51.082;5.832;2024-03-23T03:14:04;7.71;118.99
66506;HTU21D;53332;51.082;5.832;2024-03-23T03:16:32;7.65;118.99
66506;HTU21D;53332;51.082;5.832;2024-03-23T03:18:58;7.61;118.99
66506;HTU21D;53332;51.082;5.832;2024-03-23T03:21:24;7.58;118.99
66506;HTU21D;53332;51.082;5.832;2024-03-23T03:23:49;7.59;118.99
66506;HTU21D;53332;51.082;5.832;2024-03-23T03:26:16;7.62;118.99
66506;HTU21D;53332;51.082;5.832;2024-03-23T03:28:43;7.67;118.99
66506;HTU21D;53332;51.082;5.832;2024-03-23T03:31:17;7.65;118.99
66506;HTU21D;53332;51.082;5.832;2024-03-23T03:33:44;7.62;118.99
66506;HTU21D;53332;51.082;5.832;2024-03-23T03:36:10;7.62;118.99
66506;HTU21D;53332;51.082;5.832;2024-03-23T03:38:35;7.64;118.99
66506;HTU21D;53332;51.082;5.832;2024-03-23T03:41:02;7.65;118.99
66506;HTU21D;53332;51.082;5.832;2024-03-23T03:43:28;7.63;118.99
66506;HTU21D;53332;51.082;5.832;2024-03-23T03:45:58;7.60;118.99
66506;HTU21D;53332;51.082;5.832;2024-03-23T03:48:24;7.59;118.99
66506;HTU21D;53332;51.082;5.832;2024-03-23T03:50:49;7.58;118.99
66506;HTU21D;53332;51.082;5.832;2024-03-23T03:53:15;7.57;118.99
66506;HTU21D;53332;51.082;5.832;2024-03-23T03:55:41;7.59;118.99
66506;HTU21D;53332;51.082;5.832;2024-03-23T03:58:07;7.58;118.99
66506;HTU21D;53332;51.082;5.832;2024-03-23T04:00:32;7.54;118.99
66506;HTU21D;53332;51.082;5.832;2024-03-23T04:02:58;7.47;118.99
66506;HTU21D;53332;51.082;5.832;2024-03-23T04:05:24;7.40;118.99
66506;HTU21D;53332;51.082;5.832;2024-03-23T04:07:49;7.37;118.99
66506;HTU21D;53332;51.082;5.832;2024-03-23T04:10:15;7.42;118.99
66506;HTU21D;53332;51.082;5.832;2024-03-23T04:12:44;7.44;118.99
66506;HTU21D;53332;51.082;5.832;2024-03-23T04:15:10;7.40;118.99
66506;HTU21D;53332;51.082;5.832;2024-03-23T04:17:36;7.42;118.99
66506;HTU21D;53332;51.082;5.832;2024-03-23T04:20:03;7.39;118.99
66506;HTU21D;53332;51.082;5.832;2024-03-23T04:22:40;7.42;118.99
66506;HTU21D;53332;51.082;5.832;2024-03-23T04:25:06;7.42;118.99
66506;HTU21D;53332;51.082;5.832;2024-03-23T04:27:38;7.41;118.99
66506;HTU21D;53332;51.082;5.832;2024-03-23T04:30:05;7.41;118.99
66506;HTU21D;53332;51.082;5.832;2024-03-23T04:32:35;7.39;118.99
66506;HTU21D;53332;51.082;5.832;2024-03-23T04:35:00;7.32;118.99
66506;HTU21D;53332;51.082;5.832;2024-03-23T04:37:26;7.27;118.99
66506;HTU21D;53332;51.082;5.832;2024-03-23T04:39:51;7.24;118.99
66506;HTU21D;53332;51.082;5.832;2024-03-23T04:42:18;7.22;118.99
66506;HTU21D;53332;51.082;5.832;2024-03-23T04:44:43;7.22;118.99
66506;HTU21D;53332;51.082;5.832;2024-03-23T04:47:09;7.17;118.99
66506;HTU21D;53332;51.082;5.832;2024-03-23T04:49:35;7.14;118.99
66506;HTU21D;53332;51.082;5.832;2024-03-23T04:52:03;7.13;118.99
66506;HTU21D;53332;51.082;5.832;2024-03-23T04:54:29;7.10;118.99
66506;HTU21D;53332;51.082;5.832;2024-03-23T04:56:55;7.07;118.99
66506;HTU21D;53332;51.082;5.832;2024-03-23T04:59:21;7.07;118.99
66506;HTU21D;53332;51.082;5.832;2024-03-23T05:01:47;7.00;118.99
66506;HTU21D;53332;51.082;5.832;2024-03-23T05:04:12;7.01;118.99
66506;HTU21D;53332;51.082;5.832;2024-03-23T05:06:38;6.99;118.99
66506;HTU21D;53332;51.082;5.832;2024-03-23T05:09:03;6.97;118.99
66506;HTU21D;53332;51.082;5.832;2024-03-23T05:11:33;6.97;118.99
66506;HTU21D;53332;51.082;5.832;2024-03-23T05:13:59;6.94;118.99
66506;HTU21D;53332;51.082;5.832;2024-03-23T05:16:25;6.91;118.99
66506;HTU21D;53332;51.082;5.832;2024-03-23T05:18:51;6.89;118.99
66506;HTU21D;53332;51.082;5.832;2024-03-23T05:21:17;6.88;118.99
66506;HTU21D;53332;51.082;5.832;2024-03-23T05:23:43;6.87;118.99
66506;HTU21D;53332;51.082;5.832;2024-03-23T05:26:09;6.89;118.99
66506;HTU21D;53332;51.082;5.832;2024-03-23T05:28:35;6.85;118.99
66506;HTU21D;53332;51.082;5.832;2024-03-23T05:31:00;6.84;118.99
66506;HTU21D;53332;51.082;5.832;2024-03-23T05:33:26;6.85;118.99
66506;HTU21D;53332;51.082;5.832;2024-03-23T05:36:00;6.84;118.99
66506;HTU21D;53332;51.082;5.832;2024-03-23T05:38:25;6.83;118.99
66506;HTU21D;53332;51.082;5.832;2024-03-23T05:40:59;6.80;118.99
66506;HTU21D;53332;51.082;5.832;2024-03-23T05:43:26;6.83;118.99
66506;HTU21D;53332;51.082;5.832;2024-03-23T05:45:55;6.85;118.99
66506;HTU21D;53332;51.082;5.832;2024-03-23T05:48:21;6.86;118.99
66506;HTU21D;53332;51.082;5.832;2024-03-23T05:50:48;6.84;118.99
66506;HTU21D;53332;51.082;5.832;2024-03-23T05:53:15;6.84;118.99
66506;HTU21D;53332;51.082;5.832;2024-03-23T05:55:41;6.86;118.99
66506;HTU21D;53332;51.082;5.832;2024-03-23T05:58:07;6.88;118.99
66506;HTU21D;53332;51.082;5.832;2024-03-23T06:00:32;6.90;118.99
66506;HTU21D;53332;51.082;5.832;2024-03-23T06:02:58;6.93;118.99
66506;HTU21D;53332;51.082;5.832;2024-03-23T06:05:23;6.95;118.99
66506;HTU21D;53332;51.082;5.832;2024-03-23T06:07:49;6.96;118.99
66506;HTU21D;53332;51.082;5.832;2024-03-23T06:10:15;6.97;118.99
66506;HTU21D;53332;51.082;5.832;2024-03-23T06:12:41;6.97;118.99
66506;HTU21D;53332;51.082;5.832;2024-03-23T06:15:07;6.97;118.99
66506;HTU21D;53332;51.082;5.832;2024-03-23T06:17:38;6.97;118.99
66506;HTU21D;53332;51.082;5.832;2024-03-23T06:20:05;6.99;118.99
66506;HTU21D;53332;51.082;5.832;2024-03-23T06:22:32;7.02;118.99
66506;HTU21D;53332;51.082;5.832;2024-03-23T06:24:57;7.09;118.99
66506;HTU21D;53332;51.082;5.832;2024-03-23T06:27:23;7.19;118.99
66506;HTU21D;53332;51.082;5.832;2024-03-23T06:29:48;7.12;118.99
66506;HTU21D;53332;51.082;5.832;2024-03-23T06:32:14;7.14;118.99
66506;HTU21D;53332;51.082;5.832;2024-03-23T06:34:43;7.13;118.99
66506;HTU21D;53332;51.082;5.832;2024-03-23T06:37:08;7.15;118.99
66506;HTU21D;53332;51.082;5.832;2024-03-23T06:39:38;7.20;118.99
66506;HTU21D;53332;51.082;5.832;2024-03-23T06:42:04;7.22;118.99
66506;HTU21D;53332;51.082;5.832;2024-03-23T06:44:31;7.27;118.99
66506;HTU21D;53332;51.082;5.832;2024-03-23T06:46:57;7.30;118.99
66506;HTU21D;53332;51.082;5.832;2024-03-23T06:49:23;7.30;118.99
66506;HTU21D;53332;51.082;5.832;2024-03-23T06:51:49;7.29;118.99
66506;HTU21D;53332;51.082;5.832;2024-03-23T06:54:16;7.26;118.99
66506;HTU21D;53332;51.082;5.832;2024-03-23T06:56:43;7.25;118.99
66506;HTU21D;53332;51.082;5.832;2024-03-23T06:59:09;7.20;118.99
66506;HTU21D;53332;51.082;5.832;2024-03-23T07:01:35;7.22;118.99
66506;HTU21D;53332;51.082;5.832;2024-03-23T07:04:01;7.26;118.99
66506;HTU21D;53332;51.082;5.832;2024-03-23T07:06:26;7.29;118.99
66506;HTU21D;53332;51.082;5.832;2024-03-23T07:08:52;7.38;118.99
66506;HTU21D;53332;51.082;5.832;2024-03-23T07:11:22;7.47;118.99
66506;HTU21D;53332;51.082;5.832;2024-03-23T07:13:52;7.52;118.99
66506;HTU21D;53332;51.082;5.832;2024-03-23T07:16:20;7.56;118.99
66506;HTU21D;53332;51.082;5.832;2024-03-23T07:18:45;7.59;118.99
66506;HTU21D;53332;51.082;5.832;2024-03-23T07:21:11;7.61;118.99
66506;HTU21D;53332;51.082;5.832;2024-03-23T07:23:36;7.65;118.99
66506;HTU21D;53332;51.082;5.832;2024-03-23T07:26:04;7.71;118.99
66506;HTU21D;53332;51.082;5.832;2024-03-23T07:28:31;7.77;118.99
66506;HTU21D;53332;51.082;5.832;2024-03-23T07:31:05;7.84;118.99
66506;HTU21D;53332;51.082;5.832;2024-03-23T07:33:32;7.89;118.99
66506;HTU21D;53332;51.082;5.832;2024-03-23T07:35:58;7.94;118.99
66506;HTU21D;53332;51.082;5.832;2024-03-23T07:38:28;8.04;118.99
66506;HTU21D;53332;51.082;5.832;2024-03-23T07:41:07;8.06;118.99
66506;HTU21D;53332;51.082;5.832;2024-03-23T07:43:33;8.16;118.99
66506;HTU21D;53332;51.082;5.832;2024-03-23T07:45:59;8.22;118.99
66506;HTU21D;53332;51.082;5.832;2024-03-23T07:48:24;8.30;118.99
66506;HTU21D;53332;51.082;5.832;2024-03-23T07:51:03;8.28;118.99
66506;HTU21D;53332;51.082;5.832;2024-03-23T07:53:30;8.34;118.99
66506;HTU21D;53332;51.082;5.832;2024-03-23T07:56:15;8.36;118.99
66506;HTU21D;53332;51.082;5.832;2024-03-23T07:58:41;8.43;118.99
66506;HTU21D;53332;51.082;5.832;2024-03-23T08:01:11;8.49;118.99
66506;HTU21D;53332;51.082;5.832;2024-03-23T08:03:38;8.56;118.99
66506;HTU21D;53332;51.082;5.832;2024-03-23T08:06:15;8.66;118.99
66506;HTU21D;53332;51.082;5.832;2024-03-23T08:08:43;8.62;118.99
66506;HTU21D;53332;51.082;5.832;2024-03-23T08:11:10;8.58;118.99
66506;HTU21D;53332;51.082;5.832;2024-03-23T08:13:38;8.61;118.99
66506;HTU21D;53332;51.082;5.832;2024-03-23T08:16:04;8.61;118.99
66506;HTU21D;53332;51.082;5.832;2024-03-23T08:18:30;8.66;118.99
66506;HTU21D;53332;51.082;5.832;2024-03-23T08:21:00;8.74;118.99
66506;HTU21D;53332;51.082;5.832;2024-03-23T08:23:30;8.79;118.99
66506;HTU21D;53332;51.082;5.832;2024-03-23T08:26:10;8.79;118.99
66506;HTU21D;53332;51.082;5.832;2024-03-23T08:28:37;8.85;118.99
66506;HTU21D;53332;51.082;5.832;2024-03-23T08:31:11;8.89;118.99
66506;HTU21D;53332;51.082;5.832;2024-03-23T08:33:37;8.97;118.99
66506;HTU21D;53332;51.082;5.832;2024-03-23T08:36:06;9.02;118.99
66506;HTU21D;53332;51.082;5.832;2024-03-23T08:38:32;9.03;118.99
66506;HTU21D;53332;51.082;5.832;2024-03-23T08:41:04;9.08;118.99
66506;HTU21D;53332;51.082;5.832;2024-03-23T08:43:32;9.14;118.99
66506;HTU21D;53332;51.082;5.832;2024-03-23T08:46:07;9.12;118.99
66506;HTU21D;53332;51.082;5.832;2024-03-23T08:48:41;9.16;118.99
66506;HTU21D;53332;51.082;5.832;2024-03-23T08:51:09;9.20;118.99
66506;HTU21D;53332;51.082;5.832;2024-03-23T08:53:36;9.21;118.99
66506;HTU21D;53332;51.082;5.832;2024-03-23T08:56:03;9.21;118.99
66506;HTU21D;53332;51.082;5.832;2024-03-23T08:58:30;9.29;118.99
66506;HTU21D;53332;51.082;5.832;2024-03-23T09:01:02;9.41;118.99
66506;HTU21D;53332;51.082;5.832;2024-03-23T09:03:28;9.52;118.99
66506;HTU21D;53332;51.082;5.832;2024-03-23T09:05:54;9.50;118.99
66506;HTU21D;53332;51.082;5.832;2024-03-23T09:08:20;9.55;118.99
66506;HTU21D;53332;51.082;5.832;2024-03-23T09:10:47;9.34;117.81
66506;HTU21D;53332;51.082;5.832;2024-03-23T09:13:14;9.07;114.00
66506;HTU21D;53332;51.082;5.832;2024-03-23T09:15:50;8.83;115.56
66506;HTU21D;53332;51.082;5.832;2024-03-23T09:18:16;8.68;117.48
66506;HTU21D;53332;51.082;5.832;2024-03-23T09:20:42;8.66;117.62
66506;HTU21D;53332;51.082;5.832;2024-03-23T09:23:08;8.65;117.23
66506;HTU21D;53332;51.082;5.832;2024-03-23T09:25:38;8.60;118.99
66506;HTU21D;53332;51.082;5.832;2024-03-23T09:28:04;8.48;118.99
66506;HTU21D;53332;51.082;5.832;2024-03-23T09:30:35;8.39;118.99
66506;HTU21D;53332;51.082;5.832;2024-03-23T09:33:00;8.45;118.99
66506;HTU21D;53332;51.082;5.832;2024-03-23T09:35:26;8.57;118.99
66506;HTU21D;53332;51.082;5.832;2024-03-23T09:37:52;8.75;118.99
66506;HTU21D;53332;51.082;5.832;2024-03-23T09:40:17;8.95;118.99
66506;HTU21D;53332;51.082;5.832;2024-03-23T09:42:50;9.12;118.99
66506;HTU21D;53332;51.082;5.832;2024-03-23T09:45:27;9.29;118.99
66506;HTU21D;53332;51.082;5.832;2024-03-23T09:47:53;9.32;118.99
66506;HTU21D;53332;51.082;5.832;2024-03-23T09:50:18;9.41;118.99
66506;HTU21D;53332;51.082;5.832;2024-03-23T09:52:47;9.39;118.99
66506;HTU21D;53332;51.082;5.832;2024-03-23T09:55:16;9.41;118.99
66506;HTU21D;53332;51.082;5.832;2024-03-23T09:57:41;9.41;118.99
66506;HTU21D;53332;51.082;5.832;2024-03-23T10:00:07;9.41;118.99
66506;HTU21D;53332;51.082;5.832;2024-03-23T10:02:34;9.47;118.99
66506;HTU21D;53332;51.082;5.832;2024-03-23T10:05:01;9.47;118.99
66506;HTU21D;53332;51.082;5.832;2024-03-23T10:07:26;9.38;118.99
66506;HTU21D;53332;51.082;5.832;2024-03-23T10:09:55;9.10;118.99
66506;HTU21D;53332;51.082;5.832;2024-03-23T10:12:23;8.85;118.99
66506;HTU21D;53332;51.082;5.832;2024-03-23T10:14:49;8.65;118.99
66506;HTU21D;53332;51.082;5.832;2024-03-23T10:17:15;8.48;118.99
66506;HTU21D;53332;51.082;5.832;2024-03-23T10:19:47;8.32;118.99
66506;HTU21D;53332;51.082;5.832;2024-03-23T10:22:20;8.28;118.99
66506;HTU21D;53332;51.082;5.832;2024-03-23T10:24:48;8.23;118.99
66506;HTU21D;53332;51.082;5.832;2024-03-23T10:27:20;8.32;118.99
66506;HTU21D;53332;51.082;5.832;2024-03-23T10:29:46;8.47;118.99
66506;HTU21D;53332;51.082;5.832;2024-03-23T10:32:14;8.65;118.99
66506;HTU21D;53332;51.082;5.832;2024-03-23T10:34:39;8.87;118.99
66506;HTU21D;53332;51.082;5.832;2024-03-23T10:37:07;9.11;118.99
66506;HTU21D;53332;51.082;5.832;2024-03-23T10:39:38;9.48;118.99
66506;HTU21D;53332;51.082;5.832;2024-03-23T10:42:13;9.85;118.99
66506;HTU21D;53332;51.082;5.832;2024-03-23T10:44:40;10.14;118.99
66506;HTU21D;53332;51.082;5.832;2024-03-23T10:47:05;10.37;116.67
66506;HTU21D;53332;51.082;5.832;2024-03-23T10:52:02;10.88;104.42
66506;HTU21D;53332;51.082;5.832;2024-03-23T10:54:28;10.97;96.72
66506;HTU21D;53332;51.082;5.832;2024-03-23T10:57:10;10.63;105.41
66506;HTU21D;53332;51.082;5.832;2024-03-23T10:59:40;9.76;110.12
66506;HTU21D;53332;51.082;5.832;2024-03-23T11:02:06;8.96;111.48
66506;HTU21D;53332;51.082;5.832;2024-03-23T11:04:36;8.45;114.94
66506;HTU21D;53332;51.082;5.832;2024-03-23T11:09:59;8.08;118.99
66506;HTU21D;53332;51.082;5.832;2024-03-23T11:12:26;7.99;118.99
66506;HTU21D;53332;51.082;5.832;2024-03-23T11:14:56;7.83;118.99
66506;HTU21D;53332;51.082;5.832;2024-03-23T11:17:25;7.58;118.99
66506;HTU21D;53332;51.082;5.832;2024-03-23T11:25:13;6.78;118.99
66506;HTU21D;53332;51.082;5.832;2024-03-23T11:27:38;6.68;118.99
66506;HTU21D;53332;51.082;5.832;2024-03-23T11:32:42;6.65;118.99
66506;HTU21D;53332;51.082;5.832;2024-03-23T11:35:07;6.70;118.99
66506;HTU21D;53332;51.082;5.832;2024-03-23T11:37:36;6.88;118.99
66506;HTU21D;53332;51.082;5.832;2024-03-23T11:40:16;7.07;118.99
66506;HTU21D;53332;51.082;5.832;2024-03-23T11:42:42;7.22;118.99
66506;HTU21D;53332;51.082;5.832;2024-03-23T11:45:09;7.25;118.99
66506;HTU21D;53332;51.082;5.832;2024-03-23T11:47:34;7.28;118.99
66506;HTU21D;53332;51.082;5.832;2024-03-23T11:50:00;7.31;118.99
66506;HTU21D;53332;51.082;5.832;2024-03-23T11:52:25;7.32;118.99
66506;HTU21D;53332;51.082;5.832;2024-03-23T11:54:51;7.40;118.99
66506;HTU21D;53332;51.082;5.832;2024-03-23T11:57:17;7.49;118.99
66506;HTU21D;53332;51.082;5.832;2024-03-23T11:59:42;7.59;118.99
66506;HTU21D;53332;51.082;5.832;2024-03-23T12:02:11;7.62;118.99
66506;HTU21D;53332;51.082;5.832;2024-03-23T12:04:38;7.67;118.99
66506;HTU21D;53332;51.082;5.832;2024-03-23T12:07:20;7.74;118.99
66506;HTU21D;53332;51.082;5.832;2024-03-23T12:09:49;7.79;118.99
66506;HTU21D;53332;51.082;5.832;2024-03-23T12:12:27;7.86;118.99
66506;HTU21D;53332;51.082;5.832;2024-03-23T12:15:07;7.97;118.99
66506;HTU21D;53332;51.082;5.832;2024-03-23T12:17:34;8.14;118.99
66506;HTU21D;53332;51.082;5.832;2024-03-23T12:20:02;8.28;118.99
66506;HTU21D;53332;51.082;5.832;2024-03-23T12:22:28;8.46;118.99
66506;HTU21D;53332;51.082;5.832;2024-03-23T12:24:55;8.58;118.99
66506;HTU21D;53332;51.082;5.832;2024-03-23T12:27:21;8.70;118.99
66506;HTU21D;53332;51.082;5.832;2024-03-23T12:29:46;8.75;118.99
66506;HTU21D;53332;51.082;5.832;2024-03-23T12:32:13;8.82;118.99
66506;HTU21D;53332;51.082;5.832;2024-03-23T12:34:40;8.92;118.99
66506;HTU21D;53332;51.082;5.832;2024-03-23T12:37:05;9.09;118.78
66506;HTU21D;53332;51.082;5.832;2024-03-23T12:39:35;9.09;118.82
66506;HTU21D;53332;51.082;5.832;2024-03-23T12:42:01;9.10;118.63
66506;HTU21D;53332;51.082;5.832;2024-03-23T12:44:28;9.18;111.78
66506;HTU21D;53332;51.082;5.832;2024-03-23T12:46:54;9.06;112.82
66506;HTU21D;53332;51.082;5.832;2024-03-23T12:49:19;8.93;113.90
66506;HTU21D;53332;51.082;5.832;2024-03-23T12:51:55;8.71;117.55
66506;HTU21D;53332;51.082;5.832;2024-03-23T12:54:22;8.50;118.99
66506;HTU21D;53332;51.082;5.832;2024-03-23T12:56:48;8.38;118.99
66506;HTU21D;53332;51.082;5.832;2024-03-23T12:59:14;8.35;118.99
66506;HTU21D;53332;51.082;5.832;2024-03-23T13:01:39;8.43;118.99
66506;HTU21D;53332;51.082;5.832;2024-03-23T13:04:05;8.55;118.99
66506;HTU21D;53332;51.082;5.832;2024-03-23T13:06:31;8.72;118.99
66506;HTU21D;53332;51.082;5.832;2024-03-23T13:09:03;8.86;118.99
66506;HTU21D;53332;51.082;5.832;2024-03-23T13:11:30;9.00;118.99
66506;HTU21D;53332;51.082;5.832;2024-03-23T13:13:55;9.07;118.99
66506;HTU21D;53332;51.082;5.832;2024-03-23T13:16:21;9.21;118.53
66506;HTU21D;53332;51.082;5.832;2024-03-23T13:18:46;9.22;117.18
66506;HTU21D;53332;51.082;5.832;2024-03-23T13:21:12;9.21;118.99
66506;HTU21D;53332;51.082;5.832;2024-03-23T13:23:37;8.96;118.99
66506;HTU21D;53332;51.082;5.832;2024-03-23T13:26:06;8.39;118.99
66506;HTU21D;53332;51.082;5.832;2024-03-23T13:28:33;8.16;118.99
66506;HTU21D;53332;51.082;5.832;2024-03-23T13:30:59;8.03;118.99
66506;HTU21D;53332;51.082;5.832;2024-03-23T13:33:29;7.86;118.99
66506;HTU21D;53332;51.082;5.832;2024-03-23T13:35:55;7.65;118.99
66506;HTU21D;53332;51.082;5.832;2024-03-23T13:38:22;7.53;118.99
66506;HTU21D;53332;51.082;5.832;2024-03-23T13:43:22;7.31;118.99
66506;HTU21D;53332;51.082;5.832;2024-03-23T13:45:54;7.33;118.99
66506;HTU21D;53332;51.082;5.832;2024-03-23T13:48:22;7.34;118.99
66506;HTU21D;53332;51.082;5.832;2024-03-23T13:50:59;7.49;118.99
66506;HTU21D;53332;51.082;5.832;2024-03-23T13:53:25;7.70;118.99
66506;HTU21D;53332;51.082;5.832;2024-03-23T13:55:51;7.83;118.99
66506;HTU21D;53332;51.082;5.832;2024-03-23T13:58:17;7.89;118.99
66506;HTU21D;53332;51.082;5.832;2024-03-23T14:00:42;7.92;118.99
66506;HTU21D;53332;51.082;5.832;2024-03-23T14:03:09;7.93;118.99
66506;HTU21D;53332;51.082;5.832;2024-03-23T14:05:34;7.92;118.99
66506;HTU21D;53332;51.082;5.832;2024-03-23T14:08:00;7.90;118.99
66506;HTU21D;53332;51.082;5.832;2024-03-23T14:10:26;7.90;118.99
66506;HTU21D;53332;51.082;5.832;2024-03-23T14:12:53;7.85;118.99
66506;HTU21D;53332;51.082;5.832;2024-03-23T14:15:18;7.79;118.99
66506;HTU21D;53332;51.082;5.832;2024-03-23T14:17:44;7.75;118.99
66506;HTU21D;53332;51.082;5.832;2024-03-23T14:20:10;7.78;118.99
66506;HTU21D;53332;51.082;5.832;2024-03-23T14:22:37;7.78;118.99
66506;HTU21D;53332;51.082;5.832;2024-03-23T14:25:02;7.81;118.99
66506;HTU21D;53332;51.082;5.832;2024-03-23T14:27:29;7.87;118.99
66506;HTU21D;53332;51.082;5.832;2024-03-23T14:29:55;8.03;118.99
66506;HTU21D;53332;51.082;5.832;2024-03-23T14:32:21;8.22;118.99
66506;HTU21D;53332;51.082;5.832;2024-03-23T14:34:47;8.41;118.99
66506;HTU21D;53332;51.082;5.832;2024-03-23T14:37:12;8.56;118.99
66506;HTU21D;53332;51.082;5.832;2024-03-23T14:39:38;8.65;118.99
66506;HTU21D;53332;51.082;5.832;2024-03-23T14:42:07;8.72;118.99
66506;HTU21D;53332;51.082;5.832;2024-03-23T14:44:34;8.71;118.99
66506;HTU21D;53332;51.082;5.832;2024-03-23T14:46:59;8.68;118.99
66506;HTU21D;53332;51.082;5.832;2024-03-23T14:49:25;8.65;118.99
66506;HTU21D;53332;51.082;5.832;2024-03-23T14:51:51;8.60;118.99
66506;HTU21D;53332;51.082;5.832;2024-03-23T14:54:16;8.53;118.99
66506;HTU21D;53332;51.082;5.832;2024-03-23T14:56:42;8.46;118.99
66506;HTU21D;53332;51.082;5.832;2024-03-23T14:59:08;8.35;118.99
66506;HTU21D;53332;51.082;5.832;2024-03-23T15:01:33;8.24;118.99
66506;HTU21D;53332;51.082;5.832;2024-03-23T15:04:00;8.13;118.99
66506;HTU21D;53332;51.082;5.832;2024-03-23T15:06:25;7.89;118.99
66506;HTU21D;53332;51.082;5.832;2024-03-23T15:08:51;7.67;118.99
66506;HTU21D;53332;51.082;5.832;2024-03-23T15:11:16;7.54;118.99
66506;HTU21D;53332;51.082;5.832;2024-03-23T15:13:44;7.54;118.99
66506;HTU21D;53332;51.082;5.832;2024-03-23T15:16:10;7.55;118.99
66506;HTU21D;53332;51.082;5.832;2024-03-23T15:18:36;7.67;118.99
66506;HTU21D;53332;51.082;5.832;2024-03-23T15:21:03;7.79;118.99
66506;HTU21D;53332;51.082;5.832;2024-03-23T15:23:31;7.92;118.99
66506;HTU21D;53332;51.082;5.832;2024-03-23T15:25:59;8.07;118.99
66506;HTU21D;53332;51.082;5.832;2024-03-23T15:28:26;8.27;118.99
66506;HTU21D;53332;51.082;5.832;2024-03-23T15:31:03;8.46;118.99
66506;HTU21D;53332;51.082;5.832;2024-03-23T15:33:29;8.63;118.99
66506;HTU21D;53332;51.082;5.832;2024-03-23T15:35:58;8.78;118.99
66506;HTU21D;53332;51.082;5.832;2024-03-23T15:38:24;8.85;118.99
66506;HTU21D;53332;51.082;5.832;2024-03-23T15:40:53;8.95;118.99
66506;HTU21D;53332;51.082;5.832;2024-03-23T15:43:19;8.94;118.99
66506;HTU21D;53332;51.082;5.832;2024-03-23T15:45:56;8.94;118.99
66506;HTU21D;53332;51.082;5.832;2024-03-23T15:48:23;9.00;118.99
66506;HTU21D;53332;51.082;5.832;2024-03-23T15:51:01;9.10;118.99
66506;HTU21D;53332;51.082;5.832;2024-03-23T15:53:27;9.25;118.49
66506;HTU21D;53332;51.082;5.832;2024-03-23T15:56:00;9.33;118.46
66506;HTU21D;53332;51.082;5.832;2024-03-23T15:58:27;9.46;117.18
66506;HTU21D;53332;51.082;5.832;2024-03-23T16:03:25;9.54;117.38
66506;HTU21D;53332;51.082;5.832;2024-03-23T16:05:57;9.53;118.99
66506;HTU21D;53332;51.082;5.832;2024-03-23T16:08:23;9.50;118.99
66506;HTU21D;53332;51.082;5.832;2024-03-23T16:10:49;9.45;118.99
66506;HTU21D;53332;51.082;5.832;2024-03-23T16:13:16;9.39;118.99
66506;HTU21D;53332;51.082;5.832;2024-03-23T16:15:42;9.36;118.99
66506;HTU21D;53332;51.082;5.832;2024-03-23T16:18:07;9.33;118.99
66506;HTU21D;53332;51.082;5.832;2024-03-23T16:20:33;9.30;118.99
66506;HTU21D;53332;51.082;5.832;2024-03-23T16:23:02;9.25;118.99
66506;HTU21D;53332;51.082;5.832;2024-03-23T16:25:28;9.20;118.99
66506;HTU21D;53332;51.082;5.832;2024-03-23T16:27:54;9.20;118.99